createdAt,value
2023-01-23T00:02:01.815Z,7.45
2023-01-23T00:04:28.717Z,7.25
2023-01-23T00:06:55.789Z,7.35
2023-01-23T00:09:22.564Z,8.60
2023-01-23T00:11:51.787Z,6.97
2023-01-23T00:14:18.789Z,8.50
2023-01-23T00:16:45.538Z,8.05
2023-01-23T00:19:12.369Z,8.45
2023-01-23T00:21:39.948Z,7.78
2023-01-23T00:24:09.868Z,7.78
2023-01-23T00:26:36.710Z,7.88
2023-01-23T00:29:04.849Z,6.32
2023-01-23T00:31:37.843Z,6.05
2023-01-23T00:34:08.327Z,5.95
2023-01-23T00:36:38.032Z,5.93
2023-01-23T00:39:08.754Z,7.95
2023-01-23T00:41:35.754Z,6.82
2023-01-23T00:44:02.757Z,7.35
2023-01-23T00:46:29.945Z,6.82
2023-01-23T00:48:56.996Z,6.60
2023-01-23T00:51:24.194Z,7.00
2023-01-23T00:53:51.307Z,6.53
2023-01-23T00:56:18.627Z,6.82
2023-01-23T00:58:45.529Z,7.55
2023-01-23T01:01:14.159Z,5.70
2023-01-23T01:03:42.100Z,7.25
2023-01-23T01:06:10.209Z,6.63
2023-01-23T01:08:37.431Z,6.40
2023-01-23T01:11:04.685Z,6.78
2023-01-23T01:13:31.975Z,6.07
2023-01-23T01:16:02.109Z,6.18
2023-01-23T01:18:30.002Z,6.13
2023-01-23T01:20:57.803Z,6.60
2023-01-23T01:23:24.931Z,7.05
2023-01-23T01:25:51.878Z,6.68
2023-01-23T01:28:18.941Z,6.35
2023-01-23T01:30:45.850Z,7.32
2023-01-23T01:33:12.916Z,6.70
2023-01-23T01:35:42.449Z,6.60
2023-01-23T01:38:09.629Z,6.32
2023-01-23T01:40:37.852Z,6.47
2023-01-23T01:43:17.703Z,6.38
2023-01-23T01:46:09.443Z,7.47
2023-01-23T01:48:51.411Z,6.38
2023-01-23T01:52:24.189Z,6.72
2023-01-23T01:54:59.021Z,6.75
2023-01-23T01:57:29.644Z,6.20
2023-01-23T02:00:12.038Z,6.65
2023-01-23T02:02:47.554Z,6.57
2023-01-23T02:05:19.441Z,6.93
2023-01-23T02:08:05.429Z,7.53
2023-01-23T02:10:55.641Z,6.75
2023-01-23T02:13:36.174Z,6.75
2023-01-23T02:16:12.649Z,6.53
2023-01-23T02:18:44.724Z,7.28
2023-01-23T02:21:13.963Z,6.22
2023-01-23T02:23:46.834Z,7.03
2023-01-23T02:26:21.712Z,6.25
2023-01-23T02:28:56.158Z,6.25
2023-01-23T02:31:23.750Z,6.72
2023-01-23T02:33:53.469Z,6.13
2023-01-23T02:36:23.163Z,6.53
2023-01-23T02:38:55.015Z,6.78
2023-01-23T02:41:28.835Z,7.18
2023-01-23T02:43:58.653Z,7.07
2023-01-23T02:46:26.004Z,6.95
2023-01-23T02:48:52.856Z,7.38
2023-01-23T02:51:22.049Z,6.40
2023-01-23T02:53:49.321Z,6.35
2023-01-23T02:56:16.810Z,7.95
2023-01-23T02:59:02.828Z,7.30
2023-01-23T03:01:29.828Z,5.10
2023-01-23T03:03:56.637Z,5.65
2023-01-23T03:06:24.364Z,5.65
2023-01-23T03:08:51.152Z,5.07
2023-01-23T03:11:18.857Z,5.97
2023-01-23T03:13:47.268Z,5.53
2023-01-23T03:16:15.436Z,6.97
2023-01-23T03:18:53.396Z,6.97
2023-01-23T03:21:20.942Z,7.60
2023-01-23T03:23:48.455Z,7.45
2023-01-23T03:26:17.055Z,6.78
2023-01-23T03:29:02.544Z,6.60
2023-01-23T03:31:35.378Z,6.82
2023-01-23T03:34:02.681Z,6.43
2023-01-23T03:36:29.463Z,7.07
2023-01-23T03:39:14.830Z,6.85
2023-01-23T03:41:42.148Z,6.47
2023-01-23T03:44:09.456Z,6.65
2023-01-23T03:46:36.514Z,7.35
2023-01-23T03:49:03.495Z,6.07
2023-01-23T03:51:30.258Z,6.60
2023-01-23T03:53:57.099Z,7.05
2023-01-23T03:56:23.866Z,6.95
2023-01-23T03:58:50.735Z,6.50
2023-01-23T04:01:17.745Z,6.45
2023-01-23T04:03:46.664Z,6.68
2023-01-23T04:06:13.446Z,7.40
2023-01-23T04:08:42.155Z,7.05
2023-01-23T04:11:10.961Z,8.15
2023-01-23T04:13:38.683Z,8.15
2023-01-23T04:16:06.716Z,7.50
2023-01-23T04:18:33.943Z,7.78
2023-01-23T04:21:00.977Z,6.97
2023-01-23T04:23:28.740Z,7.35
2023-01-23T04:25:55.513Z,7.30
2023-01-23T04:28:22.550Z,7.68
2023-01-23T04:30:53.427Z,8.75
2023-01-23T04:33:20.527Z,7.10
2023-01-23T04:35:55.865Z,6.93
2023-01-23T04:38:24.100Z,7.32
2023-01-23T04:40:51.509Z,7.82
2023-01-23T04:43:19.381Z,7.72
2023-01-23T04:45:46.997Z,7.47
2023-01-23T04:48:14.220Z,7.18
2023-01-23T04:50:41.251Z,7.15
2023-01-23T04:53:08.430Z,6.68
2023-01-23T04:55:35.570Z,7.78
2023-01-23T04:58:03.515Z,8.10
2023-01-23T05:00:30.424Z,8.35
2023-01-23T05:02:57.833Z,7.30
2023-01-23T05:05:25.101Z,8.30
2023-01-23T05:07:52.535Z,8.55
2023-01-23T05:10:20.160Z,8.80
2023-01-23T05:12:47.685Z,8.70
2023-01-23T05:15:15.227Z,8.48
2023-01-23T05:17:41.972Z,9.07
2023-01-23T05:20:11.298Z,9.52
2023-01-23T05:22:38.721Z,9.25
2023-01-23T05:25:06.132Z,9.40
2023-01-23T05:27:33.105Z,10.95
2023-01-23T05:30:05.570Z,8.75
2023-01-23T05:32:36.137Z,10.68
2023-01-23T05:35:03.065Z,10.52
2023-01-23T05:37:52.143Z,9.40
2023-01-23T05:40:20.247Z,9.70
2023-01-23T05:42:53.537Z,8.48
2023-01-23T05:45:20.564Z,9.55
2023-01-23T05:47:48.291Z,9.07
2023-01-23T05:50:20.844Z,9.82
2023-01-23T05:52:49.589Z,9.05
2023-01-23T05:55:17.118Z,8.70
2023-01-23T05:57:49.606Z,10.30
2023-01-23T06:00:17.064Z,11.48
2023-01-23T06:02:45.182Z,10.95
2023-01-23T06:05:12.200Z,10.60
2023-01-23T06:07:39.265Z,9.25
2023-01-23T06:10:09.755Z,8.88
2023-01-23T06:12:39.087Z,10.38
2023-01-23T06:15:06.757Z,9.05
2023-01-23T06:17:33.519Z,9.25
2023-01-23T06:20:00.440Z,9.50
2023-01-23T06:22:27.220Z,8.73
2023-01-23T06:24:56.867Z,10.05
2023-01-23T06:27:23.927Z,10.52
2023-01-23T06:29:53.231Z,10.48
2023-01-23T06:32:20.141Z,11.13
2023-01-23T06:34:47.023Z,11.57
2023-01-23T06:37:13.782Z,13.95
2023-01-23T06:39:40.845Z,16.63
2023-01-23T06:42:10.442Z,17.25
2023-01-23T06:44:37.991Z,18.35
2023-01-23T06:47:05.276Z,19.85
2023-01-23T06:49:32.514Z,18.88
2023-01-23T06:51:59.268Z,15.90
2023-01-23T06:54:26.358Z,16.95
2023-01-23T06:56:53.286Z,15.13
2023-01-23T06:59:20.072Z,15.35
2023-01-23T07:01:46.935Z,15.75
2023-01-23T07:04:13.869Z,14.65
2023-01-23T07:06:40.679Z,16.02
2023-01-23T07:09:07.448Z,16.10
2023-01-23T07:11:34.334Z,17.77
2023-01-23T07:14:01.024Z,16.95
2023-01-23T07:16:28.122Z,16.33
2023-01-23T07:18:56.274Z,15.93
2023-01-23T07:21:23.254Z,14.80
2023-01-23T07:23:51.104Z,14.23
2023-01-23T07:26:17.989Z,16.88
2023-01-23T07:28:44.965Z,15.27
2023-01-23T07:31:11.888Z,14.27
2023-01-23T07:33:40.217Z,16.05
2023-01-23T07:36:07.619Z,14.63
2023-01-23T07:38:37.623Z,16.30
2023-01-23T07:41:05.101Z,14.27
2023-01-23T07:43:31.871Z,13.25
2023-01-23T07:46:01.754Z,11.77
2023-01-23T07:48:29.592Z,12.50
2023-01-23T07:50:59.156Z,11.80
2023-01-23T07:53:25.941Z,11.60
2023-01-23T07:55:52.763Z,12.48
2023-01-23T07:58:31.398Z,14.38
2023-01-23T08:00:58.770Z,12.13
2023-01-23T08:03:29.119Z,11.68
2023-01-23T08:05:56.077Z,12.82
2023-01-23T08:08:22.909Z,14.07
2023-01-23T08:10:49.628Z,14.07
2023-01-23T08:13:16.386Z,13.80
2023-01-23T08:15:43.406Z,25.23
2023-01-23T08:18:10.254Z,18.70
2023-01-23T08:20:37.407Z,17.52
2023-01-23T08:23:04.338Z,16.77
2023-01-23T08:25:31.406Z,20.27
2023-01-23T08:27:58.213Z,20.83
2023-01-23T08:30:25.253Z,21.35
2023-01-23T08:32:52.275Z,23.40
2023-01-23T08:35:19.018Z,24.30
2023-01-23T08:37:45.898Z,25.63
2023-01-23T08:40:13.128Z,25.55
2023-01-23T08:42:39.989Z,32.50
2023-01-23T08:45:08.026Z,28.95
2023-01-23T08:47:36.927Z,27.17
2023-01-23T08:50:05.938Z,24.35
2023-01-23T08:52:35.150Z,23.60
2023-01-23T08:55:02.061Z,19.95
2023-01-23T08:57:31.523Z,22.40
2023-01-23T08:59:58.547Z,24.42
2023-01-23T09:02:25.486Z,21.95
2023-01-23T09:04:52.179Z,22.00
2023-01-23T09:07:19.017Z,19.00
2023-01-23T09:09:45.750Z,14.95
2023-01-23T09:12:12.599Z,12.02
2023-01-23T09:14:39.645Z,11.63
2023-01-23T09:17:06.566Z,12.45
2023-01-23T09:19:33.884Z,13.07
2023-01-23T09:22:00.776Z,12.10
2023-01-23T09:24:27.906Z,13.13
2023-01-23T09:26:54.590Z,18.40
2023-01-23T09:29:21.631Z,19.92
2023-01-23T09:31:48.413Z,18.92
2023-01-23T09:34:17.193Z,19.60
2023-01-23T09:36:45.102Z,19.35
2023-01-23T09:39:12.489Z,22.92
2023-01-23T09:41:40.140Z,19.40
2023-01-23T09:44:20.968Z,19.73
2023-01-23T09:46:56.154Z,20.45
2023-01-23T09:49:31.117Z,21.65
2023-01-23T09:52:06.820Z,22.27
2023-01-23T09:54:59.142Z,24.88
2023-01-23T09:57:33.484Z,20.95
2023-01-23T10:00:07.017Z,20.92
2023-01-23T10:02:36.598Z,22.80
2023-01-23T10:05:04.838Z,28.50
2023-01-23T10:07:51.707Z,23.13
2023-01-23T10:10:18.418Z,26.35
2023-01-23T10:12:55.238Z,26.20
2023-01-23T10:15:37.451Z,23.42
2023-01-23T10:18:16.361Z,19.35
2023-01-23T10:21:07.592Z,22.50
2023-01-23T10:23:46.377Z,24.00
2023-01-23T10:26:24.117Z,21.75
2023-01-23T10:29:02.400Z,21.35
2023-01-23T10:31:38.631Z,22.40
2023-01-23T10:34:22.117Z,23.02
2023-01-23T10:37:23.714Z,20.35
2023-01-23T10:40:08.195Z,20.48
2023-01-23T10:42:36.906Z,18.33
2023-01-23T10:45:05.146Z,19.95
2023-01-23T10:47:49.908Z,19.10
2023-01-23T10:50:35.393Z,19.60
2023-01-23T10:53:18.967Z,20.63
2023-01-23T10:55:46.749Z,20.40
2023-01-23T10:58:49.651Z,21.13
2023-01-23T11:01:27.449Z,17.98
2023-01-23T11:03:54.431Z,17.88
2023-01-23T11:06:26.586Z,17.05
2023-01-23T11:09:05.219Z,16.17
2023-01-23T11:11:36.317Z,16.73
2023-01-23T11:17:08.345Z,16.48
2023-01-23T11:19:39.113Z,17.88
2023-01-23T11:22:32.418Z,20.17
2023-01-23T11:25:29.737Z,17.65
2023-01-23T11:28:20.748Z,17.75
2023-01-23T11:31:12.771Z,17.63
2023-01-23T11:33:58.517Z,20.45
2023-01-23T11:36:31.633Z,18.33
2023-01-23T11:39:13.477Z,17.17
2023-01-23T11:41:40.585Z,17.70
2023-01-23T11:44:18.648Z,19.25
2023-01-23T11:47:13.014Z,18.05
2023-01-23T11:50:04.532Z,19.10
2023-01-23T11:52:34.727Z,18.58
2023-01-23T11:55:38.853Z,17.92
2023-01-23T11:58:49.820Z,16.05
2023-01-23T12:02:04.712Z,15.65
2023-01-23T12:04:34.347Z,15.77
2023-01-23T12:07:17.726Z,14.13
2023-01-23T12:10:00.176Z,12.80
2023-01-23T12:12:54.416Z,11.68
2023-01-23T12:15:33.377Z,14.25
2023-01-23T12:18:40.466Z,13.02
2023-01-23T12:21:26.776Z,13.55
2023-01-23T12:24:09.162Z,15.10
2023-01-23T12:26:46.464Z,13.85
2023-01-23T12:29:28.483Z,12.13
2023-01-23T12:32:07.770Z,13.98
2023-01-23T12:34:52.803Z,13.63
2023-01-23T12:38:01.843Z,13.57
2023-01-23T12:40:37.254Z,12.82
2023-01-23T12:43:11.670Z,12.93
2023-01-23T12:45:46.804Z,12.10
2023-01-23T12:48:20.043Z,11.73
2023-01-23T12:50:51.404Z,12.50
2023-01-23T12:53:22.380Z,11.32
2023-01-23T12:56:05.074Z,12.70
2023-01-23T12:58:36.622Z,12.65
2023-01-23T13:01:40.652Z,12.75
2023-01-23T13:04:21.963Z,10.95
2023-01-23T13:07:17.260Z,7.38
2023-01-23T13:10:17.775Z,8.20
2023-01-23T13:12:44.974Z,11.40
2023-01-23T13:15:22.688Z,9.05
2023-01-23T13:17:57.660Z,9.45
2023-01-23T13:20:45.497Z,9.32
2023-01-23T13:23:35.749Z,11.60
2023-01-23T13:26:23.313Z,12.85
2023-01-23T13:28:55.829Z,9.00
2023-01-23T13:31:40.412Z,8.82
2023-01-23T13:34:35.723Z,8.20
2023-01-23T13:37:34.313Z,7.40
2023-01-23T13:40:20.038Z,6.78
2023-01-23T13:42:46.980Z,8.98
2023-01-23T13:45:16.705Z,8.90
2023-01-23T14:22:08.135Z,11.95
2023-01-23T14:24:50.157Z,12.02
2023-01-23T14:27:30.483Z,11.43
2023-01-23T14:30:02.755Z,6.65
2023-01-23T14:32:32.427Z,9.27
2023-01-23T14:34:59.885Z,9.13
2023-01-23T14:37:28.417Z,7.82
2023-01-23T14:42:45.121Z,9.13
2023-01-23T14:45:15.149Z,8.77
2023-01-23T14:47:50.843Z,7.20
2023-01-23T14:50:26.119Z,7.85
2023-01-23T14:53:01.845Z,7.28
2023-01-23T14:55:30.688Z,9.52
2023-01-23T14:58:12.640Z,7.78
2023-01-23T15:00:41.990Z,7.13
2023-01-23T15:03:13.023Z,5.65
2023-01-23T15:05:41.794Z,7.53
2023-01-23T15:08:30.905Z,7.38
2023-01-23T15:11:06.894Z,5.25
2023-01-23T15:13:51.318Z,6.53
2023-01-23T15:16:20.079Z,6.57
2023-01-23T15:19:03.904Z,7.47
2023-01-23T15:24:28.180Z,10.25
2023-01-23T15:27:32.686Z,9.45
2023-01-23T15:30:41.652Z,12.85
2023-01-23T15:33:29.036Z,10.43
2023-01-23T15:36:18.790Z,15.63
2023-01-23T15:38:49.045Z,14.40
2023-01-23T15:41:17.325Z,17.10
2023-01-23T15:43:48.112Z,11.80
2023-01-23T15:46:14.900Z,10.18
2023-01-23T15:48:41.658Z,12.18
2023-01-23T15:51:12.335Z,11.23
2023-01-23T15:53:39.225Z,11.68
2023-01-23T15:56:26.700Z,11.82
2023-01-23T15:58:53.898Z,9.43
2023-01-23T16:01:21.027Z,8.77
2023-01-23T16:03:48.060Z,9.07
2023-01-23T16:06:24.630Z,8.75
2023-01-23T16:09:00.818Z,8.77
2023-01-23T16:11:34.814Z,7.80
2023-01-23T16:14:05.128Z,8.88
2023-01-23T16:16:34.933Z,8.90
2023-01-23T16:19:01.946Z,9.13
2023-01-23T16:21:30.519Z,10.55
2023-01-23T16:23:58.018Z,12.50
2023-01-23T16:26:27.021Z,9.13
2023-01-23T16:29:01.971Z,11.80
2023-01-23T16:31:51.152Z,12.98
2023-01-23T16:34:18.154Z,12.13
2023-01-23T16:36:45.609Z,14.95
2023-01-23T16:39:24.420Z,13.52
2023-01-23T16:41:51.802Z,10.30
2023-01-23T16:44:20.362Z,12.73
2023-01-23T16:46:48.179Z,12.73
2023-01-23T16:49:15.917Z,12.32
2023-01-23T16:51:47.634Z,13.38
2023-01-23T16:54:18.937Z,13.57
2023-01-23T16:56:50.966Z,14.10
2023-01-23T16:59:23.070Z,13.68
2023-01-23T17:01:52.116Z,18.35
2023-01-23T17:04:22.102Z,18.17
2023-01-23T17:07:08.107Z,22.45
2023-01-23T17:09:35.412Z,18.27
2023-01-23T17:12:02.502Z,19.58
2023-01-23T17:14:30.992Z,23.58
2023-01-23T17:17:10.582Z,23.40
2023-01-23T17:19:41.532Z,21.38
2023-01-23T17:22:24.912Z,21.73
2023-01-23T17:24:51.905Z,18.23
2023-01-23T17:27:18.914Z,22.27
2023-01-23T17:29:45.919Z,11.65
2023-01-23T17:32:30.878Z,11.98
2023-01-23T17:35:01.750Z,11.73
2023-01-23T17:37:29.754Z,11.35
2023-01-23T17:39:59.513Z,13.93
2023-01-23T17:42:29.399Z,12.77
2023-01-23T17:44:56.413Z,14.27
2023-01-23T17:47:23.650Z,17.30
2023-01-23T17:49:54.747Z,24.80
2023-01-23T17:52:22.073Z,16.98
2023-01-23T17:54:53.083Z,17.17
2023-01-23T17:57:24.112Z,17.20
2023-01-23T17:59:55.502Z,14.02
2023-01-23T18:02:29.720Z,13.98
2023-01-23T18:04:59.840Z,15.00
2023-01-23T18:07:30.032Z,13.68
2023-01-23T18:12:59.829Z,12.02
2023-01-23T18:16:07.907Z,9.43
2023-01-23T18:18:37.581Z,8.50
2023-01-23T18:21:06.275Z,8.75
2023-01-23T18:23:37.859Z,7.75
2023-01-23T18:26:37.028Z,8.20
2023-01-23T18:29:11.192Z,8.15
2023-01-23T18:32:02.458Z,6.80
2023-01-23T18:34:56.139Z,8.25
2023-01-23T18:37:23.029Z,8.05
2023-01-23T18:40:08.564Z,6.00
2023-01-23T18:42:49.400Z,6.95
2023-01-23T18:45:23.842Z,6.78
2023-01-23T18:47:54.264Z,7.72
2023-01-23T18:50:25.907Z,8.48
2023-01-23T18:53:26.693Z,9.38
2023-01-23T18:56:22.465Z,9.77
2023-01-23T18:59:11.166Z,9.48
2023-01-23T19:01:44.377Z,14.65
2023-01-23T19:04:15.806Z,16.80
2023-01-23T19:06:44.453Z,15.65
2023-01-23T19:09:21.749Z,16.58
2023-01-23T19:12:25.023Z,16.48
2023-01-23T19:15:08.598Z,18.52
2023-01-23T19:17:43.094Z,17.85
2023-01-23T19:20:22.025Z,18.75
2023-01-23T19:23:01.748Z,25.25
2023-01-23T19:25:29.210Z,22.30
2023-01-23T19:27:58.335Z,25.30
2023-01-23T19:30:26.632Z,22.65
2023-01-23T19:32:54.496Z,21.55
2023-01-23T19:35:22.444Z,17.00
2023-01-23T19:37:49.571Z,15.18
2023-01-23T19:40:17.177Z,13.63
2023-01-23T19:42:54.374Z,18.27
2023-01-23T19:45:26.162Z,17.08
2023-01-23T19:47:53.762Z,19.75
2023-01-23T19:50:22.319Z,20.83
2023-01-23T19:52:50.116Z,16.45
2023-01-23T19:55:31.539Z,17.50
2023-01-23T19:57:58.596Z,15.63
2023-01-23T20:00:29.362Z,15.70
2023-01-23T20:02:56.746Z,12.88
2023-01-23T20:05:23.997Z,15.05
2023-01-23T20:07:56.725Z,13.45
2023-01-23T20:10:23.681Z,13.32
2023-01-23T20:12:56.898Z,12.95
2023-01-23T20:15:25.845Z,12.35
2023-01-23T20:17:54.383Z,13.35
2023-01-23T20:20:22.907Z,14.60
2023-01-23T20:22:50.727Z,12.60
2023-01-23T20:25:18.180Z,12.27
2023-01-23T20:27:45.248Z,14.00
2023-01-23T20:30:15.950Z,13.85
2023-01-23T20:32:42.986Z,12.55
2023-01-23T20:35:10.877Z,12.30
2023-01-23T20:37:37.771Z,11.90
2023-01-23T20:40:05.087Z,9.95
2023-01-23T20:42:33.417Z,11.25
2023-01-23T20:45:00.542Z,10.07
2023-01-23T20:47:33.593Z,11.13
2023-01-23T20:53:05.230Z,13.00
2023-01-23T20:55:33.548Z,12.20
2023-01-23T20:58:19.323Z,14.75
2023-01-23T21:00:46.749Z,13.73
2023-01-23T21:03:13.598Z,13.45
2023-01-23T21:05:42.267Z,17.10
2023-01-23T21:08:09.102Z,17.08
2023-01-23T21:10:43.072Z,14.75
2023-01-23T21:13:23.397Z,15.10
2023-01-23T21:16:00.250Z,14.00
2023-01-23T21:18:27.566Z,14.98
2023-01-23T21:20:54.563Z,13.85
2023-01-23T21:23:21.773Z,14.93
2023-01-23T21:25:48.635Z,14.82
2023-01-23T21:28:16.334Z,14.75
2023-01-23T21:30:50.735Z,15.43
2023-01-23T21:33:18.284Z,13.77
2023-01-23T21:35:52.219Z,14.85
2023-01-23T21:38:26.631Z,14.90
2023-01-23T21:40:57.951Z,19.67
2023-01-23T21:43:26.732Z,19.88
2023-01-23T21:45:53.686Z,15.93
2023-01-23T21:48:24.288Z,12.50
2023-01-23T21:51:00.727Z,12.55
2023-01-23T21:53:30.863Z,13.05
2023-01-23T21:55:58.853Z,12.43
2023-01-23T21:58:29.730Z,13.93
2023-01-23T22:01:21.024Z,14.35
2023-01-23T22:03:52.115Z,14.30
2023-01-23T22:06:24.518Z,17.33
2023-01-23T22:08:56.876Z,16.52
2023-01-23T22:11:24.681Z,14.27
2023-01-23T22:14:07.752Z,14.88
2023-01-23T22:16:48.892Z,14.48
2023-01-23T22:19:24.870Z,12.35
2023-01-23T22:21:58.996Z,11.23
2023-01-23T22:24:30.089Z,12.35
2023-01-23T22:29:45.207Z,12.88
2023-01-23T22:32:12.327Z,15.15
2023-01-23T22:34:39.463Z,14.82
2023-01-23T22:37:06.526Z,13.35
2023-01-23T22:39:33.356Z,12.85
2023-01-23T22:42:00.108Z,13.48
2023-01-23T22:44:26.930Z,12.23
2023-01-23T22:46:53.787Z,10.18
2023-01-23T22:49:20.942Z,11.23
2023-01-23T22:51:50.698Z,10.82
2023-01-23T22:54:22.337Z,11.40
2023-01-23T22:56:49.358Z,11.40
2023-01-23T22:59:20.086Z,10.93
2023-01-23T23:01:53.686Z,10.88
2023-01-23T23:04:20.740Z,10.75
2023-01-23T23:06:47.518Z,10.40
2023-01-23T23:09:19.967Z,10.63
2023-01-23T23:11:51.496Z,9.68
2023-01-23T23:14:18.519Z,6.60
2023-01-23T23:16:45.303Z,6.05
2023-01-23T23:19:12.208Z,6.50
2023-01-23T23:21:39.807Z,5.57
2023-01-23T23:24:08.713Z,6.38
2023-01-23T23:26:35.956Z,6.10
2023-01-23T23:29:05.922Z,6.15
2023-01-23T23:31:32.989Z,5.95
2023-01-23T23:33:59.848Z,5.22
2023-01-23T23:36:27.019Z,5.45
2023-01-23T23:38:54.267Z,5.40
2023-01-23T23:41:21.135Z,5.45
2023-01-23T23:43:51.150Z,5.18
2023-01-23T23:46:18.818Z,5.30
2023-01-23T23:48:48.030Z,6.50
2023-01-23T23:51:17.699Z,5.78
2023-01-23T23:53:45.575Z,5.50
2023-01-23T23:56:32.437Z,6.18
2023-01-23T23:59:03.739Z,7.68
